sensor_id;sensor_type;location;lat;lon;timestamp;P1;durP1;ratioP1;P2;durP2;ratioP2
22687;SDS011;11511;51.514;7.080;2022-12-18T00:03:53;99.85;;;46.22;;
22687;SDS011;11511;51.514;7.080;2022-12-18T00:06:21;96.30;;;46.30;;
22687;SDS011;11511;51.514;7.080;2022-12-18T00:08:48;97.93;;;46.30;;
22687;SDS011;11511;51.514;7.080;2022-12-18T00:11:15;96.35;;;45.97;;
22687;SDS011;11511;51.514;7.080;2022-12-18T00:13:45;96.10;;;45.88;;
22687;SDS011;11511;51.514;7.080;2022-12-18T00:16:12;101.95;;;47.83;;
22687;SDS011;11511;51.514;7.080;2022-12-18T00:18:40;100.88;;;45.67;;
22687;SDS011;11511;51.514;7.080;2022-12-18T00:21:07;96.93;;;46.47;;
22687;SDS011;11511;51.514;7.080;2022-12-18T00:23:35;96.70;;;48.08;;
22687;SDS011;11511;51.514;7.080;2022-12-18T00:26:05;101.38;;;47.92;;
22687;SDS011;11511;51.514;7.080;2022-12-18T00:28:33;104.68;;;48.15;;
22687;SDS011;11511;51.514;7.080;2022-12-18T00:31:03;99.10;;;47.00;;
22687;SDS011;11511;51.514;7.080;2022-12-18T00:33:30;106.63;;;47.53;;
22687;SDS011;11511;51.514;7.080;2022-12-18T00:36:13;97.95;;;47.60;;
22687;SDS011;11511;51.514;7.080;2022-12-18T00:38:40;106.88;;;48.17;;
22687;SDS011;11511;51.514;7.080;2022-12-18T00:41:07;99.15;;;47.88;;
22687;SDS011;11511;51.514;7.080;2022-12-18T00:43:35;99.97;;;47.17;;
22687;SDS011;11511;51.514;7.080;2022-12-18T00:46:02;99.43;;;48.33;;
22687;SDS011;11511;51.514;7.080;2022-12-18T00:48:28;100.80;;;48.53;;
22687;SDS011;11511;51.514;7.080;2022-12-18T00:50:54;104.65;;;47.15;;
22687;SDS011;11511;51.514;7.080;2022-12-18T00:53:19;99.32;;;45.78;;
22687;SDS011;11511;51.514;7.080;2022-12-18T00:55:45;101.80;;;48.75;;
22687;SDS011;11511;51.514;7.080;2022-12-18T00:58:12;100.18;;;46.78;;
22687;SDS011;11511;51.514;7.080;2022-12-18T01:00:39;97.25;;;47.28;;
22687;SDS011;11511;51.514;7.080;2022-12-18T01:03:06;102.03;;;48.03;;
22687;SDS011;11511;51.514;7.080;2022-12-18T01:05:32;111.43;;;49.15;;
22687;SDS011;11511;51.514;7.080;2022-12-18T01:07:58;94.03;;;46.15;;
22687;SDS011;11511;51.514;7.080;2022-12-18T01:10:24;100.63;;;46.88;;
22687;SDS011;11511;51.514;7.080;2022-12-18T01:12:50;96.60;;;47.25;;
22687;SDS011;11511;51.514;7.080;2022-12-18T01:15:17;102.78;;;46.88;;
22687;SDS011;11511;51.514;7.080;2022-12-18T01:17:44;97.28;;;46.55;;
22687;SDS011;11511;51.514;7.080;2022-12-18T01:20:10;94.00;;;47.20;;
22687;SDS011;11511;51.514;7.080;2022-12-18T01:22:38;98.53;;;47.17;;
22687;SDS011;11511;51.514;7.080;2022-12-18T01:25:03;101.10;;;47.47;;
22687;SDS011;11511;51.514;7.080;2022-12-18T01:27:31;100.38;;;47.83;;
22687;SDS011;11511;51.514;7.080;2022-12-18T01:29:58;99.30;;;46.50;;
22687;SDS011;11511;51.514;7.080;2022-12-18T01:32:25;101.95;;;46.85;;
22687;SDS011;11511;51.514;7.080;2022-12-18T01:34:50;104.47;;;47.65;;
22687;SDS011;11511;51.514;7.080;2022-12-18T01:37:16;101.38;;;47.30;;
22687;SDS011;11511;51.514;7.080;2022-12-18T01:39:43;96.57;;;46.78;;
22687;SDS011;11511;51.514;7.080;2022-12-18T01:42:12;96.10;;;45.47;;
22687;SDS011;11511;51.514;7.080;2022-12-18T01:50:18;99.53;;;46.10;;
22687;SDS011;11511;51.514;7.080;2022-12-18T01:52:47;97.82;;;47.60;;
22687;SDS011;11511;51.514;7.080;2022-12-18T01:55:25;94.03;;;44.97;;
22687;SDS011;11511;51.514;7.080;2022-12-18T01:57:54;91.60;;;45.47;;
22687;SDS011;11511;51.514;7.080;2022-12-18T02:00:23;90.32;;;44.50;;
22687;SDS011;11511;51.514;7.080;2022-12-18T02:02:50;85.40;;;44.03;;
22687;SDS011;11511;51.514;7.080;2022-12-18T02:18:43;88.20;;;44.63;;
22687;SDS011;11511;51.514;7.080;2022-12-18T02:26:49;85.07;;;41.90;;
22687;SDS011;11511;51.514;7.080;2022-12-18T02:29:21;87.78;;;42.58;;
22687;SDS011;11511;51.514;7.080;2022-12-18T02:31:54;91.43;;;43.83;;
22687;SDS011;11511;51.514;7.080;2022-12-18T02:34:27;87.63;;;43.00;;
22687;SDS011;11511;51.514;7.080;2022-12-18T02:36:57;91.05;;;43.75;;
22687;SDS011;11511;51.514;7.080;2022-12-18T02:39:26;87.80;;;45.22;;
22687;SDS011;11511;51.514;7.080;2022-12-18T02:42:01;85.82;;;41.78;;
22687;SDS011;11511;51.514;7.080;2022-12-18T02:44:33;78.35;;;40.22;;
22687;SDS011;11511;51.514;7.080;2022-12-18T02:47:01;84.40;;;42.75;;
22687;SDS011;11511;51.514;7.080;2022-12-18T02:49:34;90.05;;;42.80;;
22687;SDS011;11511;51.514;7.080;2022-12-18T02:54:53;86.93;;;43.10;;
22687;SDS011;11511;51.514;7.080;2022-12-18T02:57:33;84.38;;;42.15;;
22687;SDS011;11511;51.514;7.080;2022-12-18T03:00:04;89.70;;;43.50;;
22687;SDS011;11511;51.514;7.080;2022-12-18T03:05:13;92.22;;;43.97;;
22687;SDS011;11511;51.514;7.080;2022-12-18T03:07:53;90.38;;;44.28;;
22687;SDS011;11511;51.514;7.080;2022-12-18T03:10:27;91.18;;;43.10;;
22687;SDS011;11511;51.514;7.080;2022-12-18T03:13:03;83.57;;;41.97;;
22687;SDS011;11511;51.514;7.080;2022-12-18T03:15:35;89.07;;;42.13;;
22687;SDS011;11511;51.514;7.080;2022-12-18T03:18:10;83.65;;;42.33;;
22687;SDS011;11511;51.514;7.080;2022-12-18T03:20:43;86.95;;;43.25;;
22687;SDS011;11511;51.514;7.080;2022-12-18T03:23:18;84.70;;;42.05;;
22687;SDS011;11511;51.514;7.080;2022-12-18T03:25:49;81.43;;;41.88;;
22687;SDS011;11511;51.514;7.080;2022-12-18T03:28:20;90.78;;;42.25;;
22687;SDS011;11511;51.514;7.080;2022-12-18T03:30:54;83.90;;;42.33;;
22687;SDS011;11511;51.514;7.080;2022-12-18T03:33:25;87.43;;;41.75;;
22687;SDS011;11511;51.514;7.080;2022-12-18T03:35:56;85.88;;;41.03;;
22687;SDS011;11511;51.514;7.080;2022-12-18T03:38:22;86.47;;;42.05;;
22687;SDS011;11511;51.514;7.080;2022-12-18T03:40:59;82.00;;;40.65;;
22687;SDS011;11511;51.514;7.080;2022-12-18T03:46:20;77.95;;;39.80;;
22687;SDS011;11511;51.514;7.080;2022-12-18T03:48:59;78.32;;;39.35;;
22687;SDS011;11511;51.514;7.080;2022-12-18T03:52:03;81.95;;;38.97;;
22687;SDS011;11511;51.514;7.080;2022-12-18T03:54:37;75.20;;;38.08;;
22687;SDS011;11511;51.514;7.080;2022-12-18T03:57:14;77.68;;;38.67;;
22687;SDS011;11511;51.514;7.080;2022-12-18T03:59:44;77.22;;;37.90;;
22687;SDS011;11511;51.514;7.080;2022-12-18T04:02:15;77.80;;;38.53;;
22687;SDS011;11511;51.514;7.080;2022-12-18T04:04:42;74.80;;;36.60;;
22687;SDS011;11511;51.514;7.080;2022-12-18T04:07:10;71.07;;;37.00;;
22687;SDS011;11511;51.514;7.080;2022-12-18T04:09:38;76.47;;;37.70;;
22687;SDS011;11511;51.514;7.080;2022-12-18T04:12:05;68.00;;;35.28;;
22687;SDS011;11511;51.514;7.080;2022-12-18T04:14:31;73.10;;;37.50;;
22687;SDS011;11511;51.514;7.080;2022-12-18T04:17:01;76.45;;;38.47;;
22687;SDS011;11511;51.514;7.080;2022-12-18T04:19:30;72.30;;;36.80;;
22687;SDS011;11511;51.514;7.080;2022-12-18T04:21:57;73.38;;;37.40;;
22687;SDS011;11511;51.514;7.080;2022-12-18T04:24:23;70.38;;;37.33;;
22687;SDS011;11511;51.514;7.080;2022-12-18T04:27:00;75.95;;;37.72;;
22687;SDS011;11511;51.514;7.080;2022-12-18T04:29:31;79.10;;;36.50;;
22687;SDS011;11511;51.514;7.080;2022-12-18T04:31:58;77.55;;;36.80;;
22687;SDS011;11511;51.514;7.080;2022-12-18T04:34:26;74.18;;;37.38;;
22687;SDS011;11511;51.514;7.080;2022-12-18T04:36:53;76.30;;;38.05;;
22687;SDS011;11511;51.514;7.080;2022-12-18T04:39:19;71.65;;;36.55;;
22687;SDS011;11511;51.514;7.080;2022-12-18T04:41:48;70.10;;;35.78;;
22687;SDS011;11511;51.514;7.080;2022-12-18T04:44:14;79.35;;;37.05;;
22687;SDS011;11511;51.514;7.080;2022-12-18T04:46:40;71.88;;;36.60;;
22687;SDS011;11511;51.514;7.080;2022-12-18T04:49:06;70.28;;;36.88;;
22687;SDS011;11511;51.514;7.080;2022-12-18T04:51:32;72.38;;;35.80;;
22687;SDS011;11511;51.514;7.080;2022-12-18T04:53:58;73.75;;;36.30;;
22687;SDS011;11511;51.514;7.080;2022-12-18T04:56:24;76.45;;;36.80;;
22687;SDS011;11511;51.514;7.080;2022-12-18T04:58:50;71.15;;;36.83;;
22687;SDS011;11511;51.514;7.080;2022-12-18T05:01:17;71.13;;;36.88;;
22687;SDS011;11511;51.514;7.080;2022-12-18T05:03:43;74.45;;;36.50;;
22687;SDS011;11511;51.514;7.080;2022-12-18T05:06:09;74.90;;;37.35;;
22687;SDS011;11511;51.514;7.080;2022-12-18T05:08:35;74.57;;;37.03;;
22687;SDS011;11511;51.514;7.080;2022-12-18T05:11:05;74.28;;;37.17;;
22687;SDS011;11511;51.514;7.080;2022-12-18T05:13:34;67.90;;;34.90;;
22687;SDS011;11511;51.514;7.080;2022-12-18T05:16:01;69.75;;;35.90;;
22687;SDS011;11511;51.514;7.080;2022-12-18T05:18:27;66.88;;;34.65;;
22687;SDS011;11511;51.514;7.080;2022-12-18T05:20:54;69.65;;;36.33;;
22687;SDS011;11511;51.514;7.080;2022-12-18T05:23:20;68.90;;;34.92;;
22687;SDS011;11511;51.514;7.080;2022-12-18T05:25:51;67.70;;;34.78;;
22687;SDS011;11511;51.514;7.080;2022-12-18T05:28:23;70.85;;;34.63;;
22687;SDS011;11511;51.514;7.080;2022-12-18T05:30:50;66.30;;;35.20;;
22687;SDS011;11511;51.514;7.080;2022-12-18T05:33:20;66.28;;;34.13;;
22687;SDS011;11511;51.514;7.080;2022-12-18T05:35:59;67.10;;;33.70;;
22687;SDS011;11511;51.514;7.080;2022-12-18T05:38:30;65.70;;;34.37;;
22687;SDS011;11511;51.514;7.080;2022-12-18T05:40:58;68.25;;;34.03;;
22687;SDS011;11511;51.514;7.080;2022-12-18T05:43:24;67.40;;;34.60;;
22687;SDS011;11511;51.514;7.080;2022-12-18T05:45:51;68.82;;;34.40;;
22687;SDS011;11511;51.514;7.080;2022-12-18T05:48:18;68.75;;;35.53;;
22687;SDS011;11511;51.514;7.080;2022-12-18T05:50:45;66.93;;;34.72;;
22687;SDS011;11511;51.514;7.080;2022-12-18T05:53:12;69.78;;;35.97;;
22687;SDS011;11511;51.514;7.080;2022-12-18T05:55:40;73.38;;;36.88;;
22687;SDS011;11511;51.514;7.080;2022-12-18T05:58:08;64.80;;;34.88;;
22687;SDS011;11511;51.514;7.080;2022-12-18T06:00:37;73.45;;;36.53;;
22687;SDS011;11511;51.514;7.080;2022-12-18T06:03:08;64.82;;;35.03;;
22687;SDS011;11511;51.514;7.080;2022-12-18T06:05:35;67.43;;;35.47;;
22687;SDS011;11511;51.514;7.080;2022-12-18T06:08:02;66.07;;;35.08;;
22687;SDS011;11511;51.514;7.080;2022-12-18T06:10:28;71.55;;;35.88;;
22687;SDS011;11511;51.514;7.080;2022-12-18T06:12:54;67.63;;;35.20;;
22687;SDS011;11511;51.514;7.080;2022-12-18T06:15:20;69.90;;;35.40;;
22687;SDS011;11511;51.514;7.080;2022-12-18T06:17:45;68.13;;;35.15;;
22687;SDS011;11511;51.514;7.080;2022-12-18T06:20:11;68.82;;;35.33;;
22687;SDS011;11511;51.514;7.080;2022-12-18T06:22:37;68.00;;;34.50;;
22687;SDS011;11511;51.514;7.080;2022-12-18T06:25:03;72.05;;;35.92;;
22687;SDS011;11511;51.514;7.080;2022-12-18T06:27:29;70.32;;;35.40;;
22687;SDS011;11511;51.514;7.080;2022-12-18T06:29:55;64.55;;;34.03;;
22687;SDS011;11511;51.514;7.080;2022-12-18T06:32:20;67.07;;;35.13;;
22687;SDS011;11511;51.514;7.080;2022-12-18T06:34:46;69.00;;;34.30;;
22687;SDS011;11511;51.514;7.080;2022-12-18T06:37:12;64.00;;;34.97;;
22687;SDS011;11511;51.514;7.080;2022-12-18T06:39:38;72.00;;;36.13;;
22687;SDS011;11511;51.514;7.080;2022-12-18T06:42:04;70.03;;;35.45;;
22687;SDS011;11511;51.514;7.080;2022-12-18T06:44:31;72.47;;;35.15;;
22687;SDS011;11511;51.514;7.080;2022-12-18T06:46:56;68.43;;;35.15;;
22687;SDS011;11511;51.514;7.080;2022-12-18T06:49:22;64.70;;;33.33;;
22687;SDS011;11511;51.514;7.080;2022-12-18T06:51:48;69.05;;;33.55;;
22687;SDS011;11511;51.514;7.080;2022-12-18T06:54:14;67.18;;;34.00;;
22687;SDS011;11511;51.514;7.080;2022-12-18T06:56:40;68.13;;;33.35;;
22687;SDS011;11511;51.514;7.080;2022-12-18T06:59:06;63.97;;;33.47;;
22687;SDS011;11511;51.514;7.080;2022-12-18T07:01:31;65.82;;;34.10;;
22687;SDS011;11511;51.514;7.080;2022-12-18T07:03:57;62.42;;;32.17;;
22687;SDS011;11511;51.514;7.080;2022-12-18T07:06:23;62.63;;;32.22;;
22687;SDS011;11511;51.514;7.080;2022-12-18T07:08:50;63.35;;;32.65;;
22687;SDS011;11511;51.514;7.080;2022-12-18T07:11:18;63.85;;;32.58;;
22687;SDS011;11511;51.514;7.080;2022-12-18T07:13:44;63.40;;;31.88;;
22687;SDS011;11511;51.514;7.080;2022-12-18T07:16:11;61.17;;;31.60;;
22687;SDS011;11511;51.514;7.080;2022-12-18T07:18:39;62.05;;;32.40;;
22687;SDS011;11511;51.514;7.080;2022-12-18T07:21:06;59.67;;;31.77;;
22687;SDS011;11511;51.514;7.080;2022-12-18T07:23:34;65.05;;;32.67;;
22687;SDS011;11511;51.514;7.080;2022-12-18T07:26:01;67.45;;;33.63;;
22687;SDS011;11511;51.514;7.080;2022-12-18T07:28:31;64.25;;;32.65;;
22687;SDS011;11511;51.514;7.080;2022-12-18T07:30:57;63.47;;;31.58;;
22687;SDS011;11511;51.514;7.080;2022-12-18T07:33:24;60.55;;;32.80;;
22687;SDS011;11511;51.514;7.080;2022-12-18T07:35:51;62.13;;;31.83;;
22687;SDS011;11511;51.514;7.080;2022-12-18T07:38:16;60.55;;;31.88;;
22687;SDS011;11511;51.514;7.080;2022-12-18T07:40:42;58.05;;;31.35;;
22687;SDS011;11511;51.514;7.080;2022-12-18T07:43:07;74.15;;;35.10;;
22687;SDS011;11511;51.514;7.080;2022-12-18T07:45:33;73.32;;;36.00;;
22687;SDS011;11511;51.514;7.080;2022-12-18T07:47:59;64.55;;;32.92;;
22687;SDS011;11511;51.514;7.080;2022-12-18T07:50:25;60.22;;;31.15;;
22687;SDS011;11511;51.514;7.080;2022-12-18T07:52:51;63.30;;;31.83;;
22687;SDS011;11511;51.514;7.080;2022-12-18T07:55:17;59.42;;;30.92;;
22687;SDS011;11511;51.514;7.080;2022-12-18T07:57:42;59.63;;;31.25;;
22687;SDS011;11511;51.514;7.080;2022-12-18T08:00:08;59.90;;;30.85;;
22687;SDS011;11511;51.514;7.080;2022-12-18T08:02:37;59.65;;;32.15;;
22687;SDS011;11511;51.514;7.080;2022-12-18T08:05:04;61.60;;;31.73;;
22687;SDS011;11511;51.514;7.080;2022-12-18T08:07:29;61.85;;;32.05;;
22687;SDS011;11511;51.514;7.080;2022-12-18T08:09:56;63.67;;;32.58;;
22687;SDS011;11511;51.514;7.080;2022-12-18T08:12:21;64.88;;;33.35;;
22687;SDS011;11511;51.514;7.080;2022-12-18T08:14:47;67.43;;;34.17;;
22687;SDS011;11511;51.514;7.080;2022-12-18T08:17:13;67.45;;;34.38;;
22687;SDS011;11511;51.514;7.080;2022-12-18T08:19:38;70.30;;;35.03;;
22687;SDS011;11511;51.514;7.080;2022-12-18T08:22:05;69.22;;;35.33;;
22687;SDS011;11511;51.514;7.080;2022-12-18T08:24:31;68.30;;;35.33;;
22687;SDS011;11511;51.514;7.080;2022-12-18T08:26:56;73.55;;;35.60;;
22687;SDS011;11511;51.514;7.080;2022-12-18T08:29:22;66.40;;;33.80;;
22687;SDS011;11511;51.514;7.080;2022-12-18T08:31:48;68.60;;;32.72;;
22687;SDS011;11511;51.514;7.080;2022-12-18T08:34:13;66.93;;;31.90;;
22687;SDS011;11511;51.514;7.080;2022-12-18T08:36:41;55.30;;;29.15;;
22687;SDS011;11511;51.514;7.080;2022-12-18T08:39:06;59.38;;;30.33;;
22687;SDS011;11511;51.514;7.080;2022-12-18T08:41:32;61.55;;;31.23;;
22687;SDS011;11511;51.514;7.080;2022-12-18T08:43:58;61.28;;;30.95;;
22687;SDS011;11511;51.514;7.080;2022-12-18T08:46:43;58.10;;;29.30;;
22687;SDS011;11511;51.514;7.080;2022-12-18T08:49:10;52.75;;;27.83;;
22687;SDS011;11511;51.514;7.080;2022-12-18T08:51:37;60.75;;;28.05;;
22687;SDS011;11511;51.514;7.080;2022-12-18T08:54:04;52.80;;;27.98;;
22687;SDS011;11511;51.514;7.080;2022-12-18T08:56:30;57.83;;;29.25;;
22687;SDS011;11511;51.514;7.080;2022-12-18T08:58:56;56.05;;;28.92;;
22687;SDS011;11511;51.514;7.080;2022-12-18T09:01:22;54.15;;;29.38;;
22687;SDS011;11511;51.514;7.080;2022-12-18T09:03:48;55.53;;;29.13;;
22687;SDS011;11511;51.514;7.080;2022-12-18T09:06:16;56.30;;;29.90;;
22687;SDS011;11511;51.514;7.080;2022-12-18T09:08:44;63.10;;;30.08;;
22687;SDS011;11511;51.514;7.080;2022-12-18T09:11:21;56.90;;;29.63;;
22687;SDS011;11511;51.514;7.080;2022-12-18T09:13:49;56.45;;;29.17;;
22687;SDS011;11511;51.514;7.080;2022-12-18T09:16:15;50.55;;;28.70;;
22687;SDS011;11511;51.514;7.080;2022-12-18T09:18:42;48.97;;;27.45;;
22687;SDS011;11511;51.514;7.080;2022-12-18T09:21:18;51.25;;;25.52;;
22687;SDS011;11511;51.514;7.080;2022-12-18T09:23:49;48.05;;;25.90;;
22687;SDS011;11511;51.514;7.080;2022-12-18T09:26:15;46.40;;;26.38;;
22687;SDS011;11511;51.514;7.080;2022-12-18T09:28:42;49.67;;;25.67;;
22687;SDS011;11511;51.514;7.080;2022-12-18T09:31:08;46.28;;;25.90;;
22687;SDS011;11511;51.514;7.080;2022-12-18T09:33:36;45.78;;;24.35;;
22687;SDS011;11511;51.514;7.080;2022-12-18T09:36:02;43.47;;;24.10;;
22687;SDS011;11511;51.514;7.080;2022-12-18T09:38:31;51.85;;;25.58;;
22687;SDS011;11511;51.514;7.080;2022-12-18T09:41:17;47.00;;;24.48;;
22687;SDS011;11511;51.514;7.080;2022-12-18T09:43:50;44.15;;;24.95;;
22687;SDS011;11511;51.514;7.080;2022-12-18T09:46:26;44.20;;;24.42;;
22687;SDS011;11511;51.514;7.080;2022-12-18T09:48:57;44.72;;;25.38;;
22687;SDS011;11511;51.514;7.080;2022-12-18T09:51:37;44.63;;;24.90;;
22687;SDS011;11511;51.514;7.080;2022-12-18T09:54:11;43.45;;;25.67;;
22687;SDS011;11511;51.514;7.080;2022-12-18T09:56:42;46.90;;;26.15;;
22687;SDS011;11511;51.514;7.080;2022-12-18T09:59:24;44.67;;;26.15;;
22687;SDS011;11511;51.514;7.080;2022-12-18T10:01:55;45.22;;;23.08;;
22687;SDS011;11511;51.514;7.080;2022-12-18T10:04:21;46.60;;;26.08;;
22687;SDS011;11511;51.514;7.080;2022-12-18T10:07:02;47.75;;;25.58;;
22687;SDS011;11511;51.514;7.080;2022-12-18T10:09:36;47.95;;;26.08;;
22687;SDS011;11511;51.514;7.080;2022-12-18T10:15:00;42.03;;;23.00;;
22687;SDS011;11511;51.514;7.080;2022-12-18T10:23:04;44.80;;;25.02;;
22687;SDS011;11511;51.514;7.080;2022-12-18T10:28:27;39.53;;;21.73;;
22687;SDS011;11511;51.514;7.080;2022-12-18T10:30:55;41.03;;;21.77;;
22687;SDS011;11511;51.514;7.080;2022-12-18T10:33:22;40.13;;;22.50;;
22687;SDS011;11511;51.514;7.080;2022-12-18T10:35:50;40.00;;;23.25;;
22687;SDS011;11511;51.514;7.080;2022-12-18T10:40:53;44.72;;;24.67;;
22687;SDS011;11511;51.514;7.080;2022-12-18T10:46:34;41.17;;;23.02;;
22687;SDS011;11511;51.514;7.080;2022-12-18T10:48:56;39.33;;;23.35;;
22687;SDS011;11511;51.514;7.080;2022-12-18T10:56:30;34.30;;;21.13;;
22687;SDS011;11511;51.514;7.080;2022-12-18T10:59:08;37.83;;;21.88;;
22687;SDS011;11511;51.514;7.080;2022-12-18T11:04:24;35.47;;;21.50;;
22687;SDS011;11511;51.514;7.080;2022-12-18T11:06:52;34.08;;;20.08;;
22687;SDS011;11511;51.514;7.080;2022-12-18T11:09:19;34.13;;;21.38;;
22687;SDS011;11511;51.514;7.080;2022-12-18T11:11:48;31.77;;;20.73;;
22687;SDS011;11511;51.514;7.080;2022-12-18T11:14:18;33.10;;;20.38;;
22687;SDS011;11511;51.514;7.080;2022-12-18T11:16:48;33.90;;;20.45;;
22687;SDS011;11511;51.514;7.080;2022-12-18T11:21:50;31.98;;;19.45;;
22687;SDS011;11511;51.514;7.080;2022-12-18T11:24:21;35.08;;;19.60;;
22687;SDS011;11511;51.514;7.080;2022-12-18T11:27:00;30.98;;;17.95;;
22687;SDS011;11511;51.514;7.080;2022-12-18T11:29:31;31.98;;;19.25;;
22687;SDS011;11511;51.514;7.080;2022-12-18T11:32:19;32.60;;;18.55;;
22687;SDS011;11511;51.514;7.080;2022-12-18T11:34:55;30.95;;;17.73;;
22687;SDS011;11511;51.514;7.080;2022-12-18T11:37:27;26.50;;;17.63;;
22687;SDS011;11511;51.514;7.080;2022-12-18T11:42:59;30.13;;;17.70;;
22687;SDS011;11511;51.514;7.080;2022-12-18T11:45:35;32.65;;;17.73;;
22687;SDS011;11511;51.514;7.080;2022-12-18T11:48:17;30.25;;;17.65;;
22687;SDS011;11511;51.514;7.080;2022-12-18T11:50:54;27.48;;;16.98;;
22687;SDS011;11511;51.514;7.080;2022-12-18T12:03:50;28.73;;;17.13;;
22687;SDS011;11511;51.514;7.080;2022-12-18T12:06:44;26.58;;;16.50;;
22687;SDS011;11511;51.514;7.080;2022-12-18T12:18:40;28.27;;;16.98;;
22687;SDS011;11511;51.514;7.080;2022-12-18T12:37:40;27.30;;;16.98;;
22687;SDS011;11511;51.514;7.080;2022-12-18T12:40:28;25.52;;;16.20;;
22687;SDS011;11511;51.514;7.080;2022-12-18T12:42:58;27.35;;;16.58;;
22687;SDS011;11511;51.514;7.080;2022-12-18T12:45:48;28.70;;;17.13;;
22687;SDS011;11511;51.514;7.080;2022-12-18T12:51:10;26.48;;;16.65;;
22687;SDS011;11511;51.514;7.080;2022-12-18T12:53:41;26.90;;;16.90;;
22687;SDS011;11511;51.514;7.080;2022-12-18T12:56:08;28.02;;;17.23;;
22687;SDS011;11511;51.514;7.080;2022-12-18T13:01:24;26.88;;;16.85;;
22687;SDS011;11511;51.514;7.080;2022-12-18T13:04:14;27.00;;;17.40;;
22687;SDS011;11511;51.514;7.080;2022-12-18T13:09:32;27.70;;;17.10;;
22687;SDS011;11511;51.514;7.080;2022-12-18T13:12:03;25.85;;;16.60;;
22687;SDS011;11511;51.514;7.080;2022-12-18T13:14:48;25.10;;;16.35;;
22687;SDS011;11511;51.514;7.080;2022-12-18T13:19:56;25.58;;;17.13;;
22687;SDS011;11511;51.514;7.080;2022-12-18T13:22:43;26.02;;;17.20;;
22687;SDS011;11511;51.514;7.080;2022-12-18T13:28:01;25.48;;;17.40;;
22687;SDS011;11511;51.514;7.080;2022-12-18T13:38:22;27.73;;;17.48;;
22687;SDS011;11511;51.514;7.080;2022-12-18T13:40:54;29.95;;;18.80;;
22687;SDS011;11511;51.514;7.080;2022-12-18T13:43:23;39.15;;;23.00;;
22687;SDS011;11511;51.514;7.080;2022-12-18T13:45:59;28.52;;;18.60;;
22687;SDS011;11511;51.514;7.080;2022-12-18T13:48:27;28.20;;;17.20;;
22687;SDS011;11511;51.514;7.080;2022-12-18T13:51:00;18.42;;;11.32;;
22687;SDS011;11511;51.514;7.080;2022-12-18T13:53:30;13.35;;;7.68;;
22687;SDS011;11511;51.514;7.080;2022-12-18T13:56:00;14.73;;;8.73;;
22687;SDS011;11511;51.514;7.080;2022-12-18T13:58:27;12.43;;;8.00;;
22687;SDS011;11511;51.514;7.080;2022-12-18T14:00:53;15.75;;;9.07;;
22687;SDS011;11511;51.514;7.080;2022-12-18T14:03:20;19.67;;;9.25;;
22687;SDS011;11511;51.514;7.080;2022-12-18T14:05:52;14.52;;;7.07;;
22687;SDS011;11511;51.514;7.080;2022-12-18T14:08:21;14.50;;;7.15;;
22687;SDS011;11511;51.514;7.080;2022-12-18T14:10:47;17.20;;;9.50;;
22687;SDS011;11511;51.514;7.080;2022-12-18T14:13:29;15.02;;;8.57;;
22687;SDS011;11511;51.514;7.080;2022-12-18T14:16:02;16.25;;;8.43;;
22687;SDS011;11511;51.514;7.080;2022-12-18T14:21:18;14.27;;;7.82;;
22687;SDS011;11511;51.514;7.080;2022-12-18T14:23:45;12.35;;;7.35;;
22687;SDS011;11511;51.514;7.080;2022-12-18T14:26:27;14.50;;;8.30;;
22687;SDS011;11511;51.514;7.080;2022-12-18T14:28:55;14.35;;;8.07;;
22687;SDS011;11511;51.514;7.080;2022-12-18T14:31:25;13.38;;;8.20;;
22687;SDS011;11511;51.514;7.080;2022-12-18T14:33:53;14.05;;;8.40;;
22687;SDS011;11511;51.514;7.080;2022-12-18T14:36:26;13.73;;;8.75;;
22687;SDS011;11511;51.514;7.080;2022-12-18T14:38:54;12.68;;;8.15;;
22687;SDS011;11511;51.514;7.080;2022-12-18T14:41:24;16.48;;;7.82;;
22687;SDS011;11511;51.514;7.080;2022-12-18T14:43:52;12.20;;;7.57;;
22687;SDS011;11511;51.514;7.080;2022-12-18T14:46:38;13.18;;;8.10;;
22687;SDS011;11511;51.514;7.080;2022-12-18T14:52:20;16.63;;;8.50;;
22687;SDS011;11511;51.514;7.080;2022-12-18T14:54:51;16.40;;;9.70;;
22687;SDS011;11511;51.514;7.080;2022-12-18T14:57:20;15.95;;;8.82;;
22687;SDS011;11511;51.514;7.080;2022-12-18T14:59:48;16.75;;;10.13;;
22687;SDS011;11511;51.514;7.080;2022-12-18T15:02:25;15.77;;;9.73;;
22687;SDS011;11511;51.514;7.080;2022-12-18T15:07:57;13.55;;;8.65;;
22687;SDS011;11511;51.514;7.080;2022-12-18T15:10:29;17.67;;;9.00;;
22687;SDS011;11511;51.514;7.080;2022-12-18T15:23:36;15.18;;;9.35;;
22687;SDS011;11511;51.514;7.080;2022-12-18T15:26:11;15.70;;;9.38;;
22687;SDS011;11511;51.514;7.080;2022-12-18T15:28:52;16.65;;;8.90;;
22687;SDS011;11511;51.514;7.080;2022-12-18T15:31:29;14.93;;;9.35;;
22687;SDS011;11511;51.514;7.080;2022-12-18T15:36:24;14.23;;;8.73;;
22687;SDS011;11511;51.514;7.080;2022-12-18T15:38:50;14.65;;;9.43;;
22687;SDS011;11511;51.514;7.080;2022-12-18T15:41:18;17.27;;;10.05;;
22687;SDS011;11511;51.514;7.080;2022-12-18T15:43:45;16.45;;;9.90;;
22687;SDS011;11511;51.514;7.080;2022-12-18T15:46:13;16.60;;;9.30;;
22687;SDS011;11511;51.514;7.080;2022-12-18T15:48:41;16.88;;;9.57;;
22687;SDS011;11511;51.514;7.080;2022-12-18T15:51:13;15.90;;;9.43;;
22687;SDS011;11511;51.514;7.080;2022-12-18T15:53:42;17.30;;;9.40;;
22687;SDS011;11511;51.514;7.080;2022-12-18T15:56:12;15.75;;;9.30;;
22687;SDS011;11511;51.514;7.080;2022-12-18T15:58:58;16.67;;;9.10;;
22687;SDS011;11511;51.514;7.080;2022-12-18T16:01:25;18.38;;;9.27;;
22687;SDS011;11511;51.514;7.080;2022-12-18T16:03:52;15.15;;;8.95;;
22687;SDS011;11511;51.514;7.080;2022-12-18T16:06:19;19.30;;;10.05;;
22687;SDS011;11511;51.514;7.080;2022-12-18T16:08:46;18.52;;;10.35;;
22687;SDS011;11511;51.514;7.080;2022-12-18T16:11:22;16.88;;;10.20;;
22687;SDS011;11511;51.514;7.080;2022-12-18T16:16:47;15.32;;;9.55;;
22687;SDS011;11511;51.514;7.080;2022-12-18T16:19:16;18.40;;;10.90;;
22687;SDS011;11511;51.514;7.080;2022-12-18T16:21:43;21.20;;;10.75;;
22687;SDS011;11511;51.514;7.080;2022-12-18T16:24:16;17.10;;;9.70;;
22687;SDS011;11511;51.514;7.080;2022-12-18T16:26:42;17.27;;;10.23;;
22687;SDS011;11511;51.514;7.080;2022-12-18T16:29:08;18.23;;;10.27;;
22687;SDS011;11511;51.514;7.080;2022-12-18T16:31:35;18.63;;;11.13;;
22687;SDS011;11511;51.514;7.080;2022-12-18T16:37:26;18.98;;;10.57;;
22687;SDS011;11511;51.514;7.080;2022-12-18T16:39:45;21.38;;;11.40;;
22687;SDS011;11511;51.514;7.080;2022-12-18T16:42:13;16.95;;;10.25;;
22687;SDS011;11511;51.514;7.080;2022-12-18T16:44:44;18.63;;;10.88;;
22687;SDS011;11511;51.514;7.080;2022-12-18T16:47:10;20.40;;;11.43;;
22687;SDS011;11511;51.514;7.080;2022-12-18T16:49:36;19.98;;;11.50;;
22687;SDS011;11511;51.514;7.080;2022-12-18T16:52:02;19.63;;;11.35;;
22687;SDS011;11511;51.514;7.080;2022-12-18T16:54:41;22.35;;;12.02;;
22687;SDS011;11511;51.514;7.080;2022-12-18T16:57:08;20.25;;;11.93;;
22687;SDS011;11511;51.514;7.080;2022-12-18T16:59:37;20.55;;;11.85;;
22687;SDS011;11511;51.514;7.080;2022-12-18T17:02:04;20.38;;;12.02;;
22687;SDS011;11511;51.514;7.080;2022-12-18T17:04:31;23.95;;;13.07;;
22687;SDS011;11511;51.514;7.080;2022-12-18T17:06:58;23.30;;;12.70;;
22687;SDS011;11511;51.514;7.080;2022-12-18T17:09:24;22.65;;;13.35;;